Terminal Aerodrome Forecast
Issued by NWS

Home | Current Version | Previous Version | Text Only | Print | Product List | Glossary On
Versions: 1 2 3 4 5 6 7 8 9 10 11 12 13 14 15 16 17
000
FTUS43 KICT 282300
TAFSLN
TAF
KSLN 282324Z 2900/2924 18012G18KT P6SM SCT060 BKN090
     FM290200 17011KT P6SM VCTS SCT060CB BKN090
      TEMPO 2902/2906 VRB15G30KT 3SM TSRA OVC050CB
     FM291100 21006KT P6SM BKN100
     FM291500 22009KT P6SM BKN120=

USA.gov is the U.S. government's official web portal to all federal, state and local government web resources and services.